Time;durP1;ratioP1;P1;durP2;ratioP2;P2;SDS_P1;SDS_P2;PMS_P1;PMS_P2;Temp;Humidity;BMP_temperature;BMP_pressure;BME280_temperature;BME280_humidity;BME280_pressure;Samples;Min_cycle;Max_cycle;Signal;HPM_P1;HPM_P2
2022/04/01 00:01:11;;;;;;;;;;;23.70;40.40;;;;;;1559379;76;1417;-63
2022/04/01 00:03:13;;;;;;;;;;;23.70;40.40;;;;;;1559677;75;695;-64
2022/04/01 00:05:14;;;;;;;;;;;23.60;40.30;;;;;;1566814;75;785;-62
2022/04/01 00:07:16;;;;;;;;;;;23.70;40.50;;;;;;1560765;75;797;-62
2022/04/01 00:09:18;;;;;;;;;;;23.70;40.40;;;;;;1574378;75;1074;-62
2022/04/01 00:11:20;;;;;;;;;;;23.60;40.30;;;;;;1571412;75;751;-62
2022/04/01 00:13:22;;;;;;;;;;;23.70;40.40;;;;;;1587132;75;1941;-62
2022/04/01 00:15:24;;;;;;;;;;;23.70;40.50;;;;;;1572395;75;776;-62
2022/04/01 00:17:26;;;;;;;;;;;23.70;40.40;;;;;;1585132;75;810;-63
2022/04/01 00:19:28;;;;;;;;;;;23.70;40.40;;;;;;1587259;75;1120;-64
2022/04/01 00:21:30;;;;;;;;;;;23.60;40.20;;;;;;1587244;75;800;-64
2022/04/01 00:23:32;;;;;;;;;;;23.60;40.30;;;;;;1579025;75;802;-63
2022/04/01 00:25:34;;;;;;;;;;;23.70;40.40;;;;;;1572814;75;755;-63
2022/04/01 00:27:36;;;;;;;;;;;23.60;40.20;;;;;;1587258;75;767;-64
2022/04/01 00:29:39;;;;;;;;;;;23.60;40.30;;;;;;1587104;75;1191;-64
2022/04/01 00:31:42;;;;;;;;;;;23.60;40.30;;;;;;1587244;75;1910;-63
2022/04/01 00:33:44;;;;;;;;;;;23.60;40.30;;;;;;1586653;75;1752;-64
2022/04/01 00:35:46;;;;;;;;;;;23.60;40.30;;;;;;1556643;75;765;-63
2022/04/01 00:37:49;;;;;;;;;;;23.60;40.30;;;;;;1552036;76;689;-64
2022/04/01 00:39:51;;;;;;;;;;;23.60;40.30;;;;;;1551850;76;1135;-65
2022/04/01 00:41:53;;;;;;;;;;;23.50;40.30;;;;;;1561871;75;791;-63
2022/04/01 00:44:13;;;;;;;;;;;23.50;40.30;;;;;;1558912;76;696;-63
2022/04/01 00:46:15;;;;;;;;;;;23.50;40.40;;;;;;1558360;76;1141;-63
2022/04/01 00:48:18;;;;;;;;;;;23.50;40.40;;;;;;1558882;76;741;-63
2022/04/01 00:50:20;;;;;;;;;;;23.50;40.40;;;;;;1558701;76;1137;-63
2022/04/01 00:52:22;;;;;;;;;;;23.60;40.40;;;;;;1556391;76;1949;-64
2022/04/01 00:54:24;;;;;;;;;;;23.50;40.40;;;;;;1552075;76;757;-63
2022/04/01 00:56:30;;;;;;;;;;;23.50;40.40;;;;;;1552003;76;686;-64
2022/04/01 00:58:32;;;;;;;;;;;23.60;40.40;;;;;;1563971;75;802;-62
2022/04/01 01:00:36;;;;;;;;;;;23.60;40.40;;;;;;1587151;75;1121;-64
2022/04/01 01:02:39;;;;;;;;;;;23.50;40.40;;;;;;1587144;75;758;-61
2022/04/01 01:04:41;;;;;;;;;;;23.50;40.40;;;;;;1559733;76;872;-64
2022/04/01 01:06:46;;;;;;;;;;;23.60;40.40;;;;;;1560030;76;783;-65
2022/04/01 01:08:48;;;;;;;;;;;23.60;40.40;;;;;;1556698;76;706;-65
2022/04/01 01:10:50;;;;;;;;;;;23.60;40.40;;;;;;1560023;76;1122;-64
2022/04/01 01:12:51;;;;;;;;;;;23.50;40.30;;;;;;1558959;76;1935;-63
2022/04/01 01:14:53;;;;;;;;;;;23.50;40.40;;;;;;1551862;76;710;-64
2022/04/01 01:16:56;;;;;;;;;;;23.60;40.40;;;;;;1580707;75;762;-66
2022/04/01 01:19:00;;;;;;;;;;;23.50;40.40;;;;;;1587182;75;719;-63
2022/04/01 01:21:02;;;;;;;;;;;23.60;40.40;;;;;;1582867;75;1014;-64
2022/04/01 01:23:05;;;;;;;;;;;23.60;40.40;;;;;;1563898;75;793;-63
2022/04/01 01:25:08;;;;;;;;;;;23.60;40.40;;;;;;1555387;76;615;-63
2022/04/01 01:27:10;;;;;;;;;;;23.60;40.40;;;;;;1560039;76;717;-66
2022/04/01 01:29:12;;;;;;;;;;;23.60;40.40;;;;;;1559865;76;1189;-64
2022/04/01 01:31:14;;;;;;;;;;;23.60;40.30;;;;;;1560116;76;744;-66
2022/04/01 01:33:16;;;;;;;;;;;23.60;40.40;;;;;;1554270;75;1941;-63
2022/04/01 01:35:19;;;;;;;;;;;23.60;40.40;;;;;;1551757;76;765;-65
2022/04/01 01:37:21;;;;;;;;;;;23.50;40.40;;;;;;1551886;76;703;-63
2022/04/01 01:39:23;;;;;;;;;;;23.60;40.40;;;;;;1551947;76;1134;-63
2022/04/01 01:41:25;;;;;;;;;;;23.60;40.40;;;;;;1558847;76;788;-63
2022/04/01 01:43:27;;;;;;;;;;;23.50;40.40;;;;;;1559978;76;724;-62
2022/04/01 01:45:29;;;;;;;;;;;23.60;40.40;;;;;;1559936;76;807;-65
2022/04/01 01:47:31;;;;;;;;;;;23.60;40.40;;;;;;1560017;76;739;-64
2022/04/01 01:49:33;;;;;;;;;;;23.60;40.40;;;;;;1559754;76;1243;-63
2022/04/01 01:56:14;;;;;;;;;;;23.60;40.40;;;;;;1551317;76;1665;-63
2022/04/01 01:58:16;;;;;;;;;;;23.60;40.40;;;;;;1551993;76;709;-63
2022/04/01 02:00:22;;;;;;;;;;;23.50;40.50;;;;;;1551901;76;1125;-63
2022/04/01 02:02:22;;;;;;;;;;;23.50;40.50;;;;;;1551388;76;1648;-61
2022/04/01 02:04:24;;;;;;;;;;;23.60;40.40;;;;;;1552965;76;743;-62
2022/04/01 02:06:25;;;;;;;;;;;23.60;40.50;;;;;;1551936;76;655;-63
2022/04/01 02:08:27;;;;;;;;;;;23.50;40.40;;;;;;1551844;76;706;-62
2022/04/01 02:10:29;;;;;;;;;;;23.50;40.50;;;;;;1551945;76;1146;-64
2022/04/01 02:12:31;;;;;;;;;;;23.50;40.50;;;;;;1555963;76;1986;-63
2022/04/01 02:14:34;;;;;;;;;;;23.50;40.50;;;;;;1560095;76;706;-64
2022/04/01 02:16:37;;;;;;;;;;;23.60;40.40;;;;;;1577835;75;758;-62
2022/04/01 02:18:39;;;;;;;;;;;23.50;40.50;;;;;;1587219;75;787;-64
2022/04/01 02:20:41;;;;;;;;;;;23.50;40.50;;;;;;1587198;75;1127;-62
2022/04/01 02:22:48;;;;;;;;;;;23.50;40.50;;;;;;1561626;75;736;-64
2022/04/01 02:24:50;;;;;;;;;;;23.50;40.40;;;;;;1553191;76;1618;-62
2022/04/01 02:26:50;;;;;;;;;;;23.60;40.40;;;;;;1559625;76;1643;-64
2022/04/01 02:28:56;;;;;;;;;;;23.60;40.30;;;;;;1559944;76;730;-63
2022/04/01 02:30:56;;;;;;;;;;;23.60;40.30;;;;;;1559475;76;1836;-64
2022/04/01 02:32:58;;;;;;;;;;;23.60;40.30;;;;;;1572899;75;1933;-63
2022/04/01 02:34:59;;;;;;;;;;;23.70;40.50;;;;;;1587273;75;771;-63
2022/04/01 02:37:04;;;;;;;;;;;23.60;40.30;;;;;;1587190;75;717;-62
2022/04/01 02:39:05;;;;;;;;;;;23.70;40.50;;;;;;1586791;75;1690;-65
2022/04/01 02:41:08;;;;;;;;;;;23.60;40.30;;;;;;1569061;75;934;-64
2022/04/01 02:43:10;;;;;;;;;;;23.70;40.40;;;;;;1559894;76;760;-64
2022/04/01 02:45:13;;;;;;;;;;;23.70;40.70;;;;;;1559829;75;796;-63
2022/04/01 02:47:15;;;;;;;;;;;23.70;40.30;;;;;;1560014;76;723;-64
2022/04/01 02:49:17;;;;;;;;;;;23.90;40.40;;;;;;1557916;76;1169;-65
2022/04/01 02:51:19;;;;;;;;;;;23.70;40.30;;;;;;1551742;76;765;-65
2022/04/01 02:53:21;;;;;;;;;;;23.80;40.30;;;;;;1551822;76;1925;-63
2022/04/01 02:55:23;;;;;;;;;;;23.90;40.30;;;;;;1552072;76;740;-64
2022/04/01 02:57:25;;;;;;;;;;;23.90;40.20;;;;;;1552016;76;728;-63
2022/04/01 03:01:31;;;;;;;;;;;24.00;40.30;;;;;;1549799;75;591;-69
2022/04/01 03:03:33;;;;;;;;;;;23.90;40.40;;;;;;1519079;78;772;-69
2022/04/01 03:05:35;;;;;;;;;;;23.90;40.20;;;;;;1519019;78;712;-69
2022/04/01 03:07:37;;;;;;;;;;;24.00;40.20;;;;;;1519089;78;854;-69
2022/04/01 03:09:38;;;;;;;;;;;24.00;40.30;;;;;;1515368;77;1199;-69
2022/04/01 03:11:41;;;;;;;;;;;23.90;40.30;;;;;;1544978;77;732;-69
2022/04/01 03:13:43;;;;;;;;;;;24.00;40.30;;;;;;1544686;77;1935;-69
2022/04/01 03:15:47;;;;;;;;;;;24.20;40.30;;;;;;1544836;76;756;-68
2022/04/01 03:17:49;;;;;;;;;;;24.10;40.20;;;;;;1545757;76;722;-70
2022/04/01 03:19:51;;;;;;;;;;;24.20;40.30;;;;;;1544840;76;1128;-66
2022/04/01 03:21:53;;;;;;;;;;;24.00;40.20;;;;;;1537600;76;727;-70
2022/04/01 03:23:55;;;;;;;;;;;24.00;40.70;;;;;;1554235;76;724;-69
2022/04/01 03:25:56;;;;;;;;;;;23.90;40.80;;;;;;1545494;76;705;-68
2022/04/01 03:27:59;;;;;;;;;;;23.90;40.70;;;;;;1544996;77;714;-69
2022/04/01 03:30:01;;;;;;;;;;;24.00;40.50;;;;;;1535758;76;1175;-68
2022/04/01 03:32:03;;;;;;;;;;;24.00;40.40;;;;;;1542640;77;811;-69
2022/04/01 03:34:05;;;;;;;;;;;24.00;40.20;;;;;;1544789;76;1933;-66
2022/04/01 03:36:07;;;;;;;;;;;24.00;40.20;;;;;;1540150;74;740;-67
2022/04/01 03:38:11;;;;;;;;;;;24.10;40.40;;;;;;1538323;77;711;-68
2022/04/01 03:40:16;;;;;;;;;;;24.00;40.40;;;;;;1543554;76;1080;-66
2022/04/01 03:42:20;;;;;;;;;;;24.10;40.50;;;;;;1544767;77;1115;-66
2022/04/01 03:44:24;;;;;;;;;;;24.10;40.30;;;;;;1545835;76;769;-66
2022/04/01 03:46:26;;;;;;;;;;;24.00;40.10;;;;;;1542296;76;1729;-67
2022/04/01 03:48:31;;;;;;;;;;;24.20;40.10;;;;;;1537246;76;729;-67
2022/04/01 03:50:33;;;;;;;;;;;24.20;40.10;;;;;;1537607;76;1233;-68
2022/04/01 03:52:35;;;;;;;;;;;24.10;40.00;;;;;;1534022;76;683;-68
2022/04/01 03:54:37;;;;;;;;;;;24.20;40.00;;;;;;1534137;76;1979;-68
2022/04/01 03:56:39;;;;;;;;;;;24.10;40.00;;;;;;1538251;76;664;-67
2022/04/01 03:58:41;;;;;;;;;;;24.10;40.00;;;;;;1543343;76;788;-69
2022/04/01 04:00:43;;;;;;;;;;;24.20;40.00;;;;;;1503124;77;1140;-68
2022/04/01 04:02:46;;;;;;;;;;;24.20;39.80;;;;;;1539373;76;720;-67
2022/04/01 04:04:50;;;;;;;;;;;24.20;39.80;;;;;;1538796;76;732;-68
2022/04/01 04:06:52;;;;;;;;;;;24.20;39.80;;;;;;1530074;76;1293;-70
2022/04/01 04:08:58;;;;;;;;;;;24.10;39.80;;;;;;1527991;76;735;-69
2022/04/01 04:11:00;;;;;;;;;;;24.10;39.90;;;;;;1536588;76;1338;-69
2022/04/01 04:13:06;;;;;;;;;;;24.00;39.70;;;;;;1540611;76;1919;-69
2022/04/01 04:15:08;;;;;;;;;;;24.00;39.80;;;;;;1544768;76;701;-68
2022/04/01 04:17:11;;;;;;;;;;;24.00;39.80;;;;;;1546405;75;767;-70
2022/04/01 04:19:19;;;;;;;;;;;24.00;39.90;;;;;;1538131;76;746;-68
2022/04/01 04:21:31;;;;;;;;;;;24.00;39.80;;;;;;1524082;76;1795;-68
2022/04/01 04:23:38;;;;;;;;;;;24.00;39.80;;;;;;1535014;76;727;-68
2022/04/01 04:25:40;;;;;;;;;;;24.00;39.80;;;;;;1538320;76;1978;-67
2022/04/01 04:27:43;;;;;;;;;;;24.00;39.90;;;;;;1539086;76;656;-68
2022/04/01 04:29:50;;;;;;;;;;;24.00;39.90;;;;;;1541537;76;1923;-69
2022/04/01 04:31:56;;;;;;;;;;;24.00;39.90;;;;;;1542493;76;1683;-67
2022/04/01 04:33:59;;;;;;;;;;;24.00;40.00;;;;;;1532312;76;1945;-66
2022/04/01 04:36:04;;;;;;;;;;;24.10;40.00;;;;;;1538924;76;744;-70
2022/04/01 04:38:05;;;;;;;;;;;24.00;40.10;;;;;;1539841;76;1679;-66
2022/04/01 04:40:07;;;;;;;;;;;24.00;40.00;;;;;;1530936;76;1175;-68
2022/04/01 04:42:09;;;;;;;;;;;24.10;40.00;;;;;;1537535;76;704;-70
2022/04/01 04:44:11;;;;;;;;;;;24.10;39.90;;;;;;1532138;76;726;-68
2022/04/01 04:46:14;;;;;;;;;;;24.10;40.00;;;;;;1540963;76;810;-60
2022/04/01 04:48:16;;;;;;;;;;;24.10;40.10;;;;;;1552663;76;774;-65
2022/04/01 04:50:18;;;;;;;;;;;24.00;40.00;;;;;;1547914;76;1095;-65
2022/04/01 04:52:20;;;;;;;;;;;24.20;40.00;;;;;;1543228;76;662;-66
2022/04/01 04:54:24;;;;;;;;;;;24.10;39.90;;;;;;1546853;76;1917;-66
2022/04/01 04:56:26;;;;;;;;;;;24.00;39.80;;;;;;1544719;76;699;-66
2022/04/01 04:58:29;;;;;;;;;;;24.00;39.80;;;;;;1544970;77;718;-66
2022/04/01 05:00:31;;;;;;;;;;;24.00;39.70;;;;;;1544800;77;1145;-68
2022/04/01 05:02:51;;;;;;;;;;;24.00;39.80;;;;;;1544828;77;776;-66
2022/04/01 05:05:06;;;;;;;;;;;24.00;39.70;;;;;;1545927;76;742;-66
2022/04/01 05:07:10;;;;;;;;;;;24.00;39.70;;;;;;1544759;76;1672;-66
2022/04/01 05:09:17;;;;;;;;;;;24.00;39.50;;;;;;1544851;76;2022;-66
2022/04/01 05:11:21;;;;;;;;;;;24.00;39.40;;;;;;1523187;75;1963;-66
2022/04/01 05:13:25;;;;;;;;;;;23.90;39.40;;;;;;1524186;76;1912;-66
2022/04/01 05:15:27;;;;;;;;;;;23.80;39.40;;;;;;1548170;75;714;-66
2022/04/01 05:17:36;;;;;;;;;;;23.80;39.70;;;;;;1589295;75;720;-65
2022/04/01 05:19:38;;;;;;;;;;;23.70;40.00;;;;;;1589221;75;1107;-64
2022/04/01 05:22:02;;;;;;;;;;;23.70;39.70;;;;;;1589443;75;733;-65
2022/04/01 05:24:06;;;;;;;;;;;23.70;39.70;;;;;;1519142;78;666;-66
2022/04/01 05:26:12;;;;;;;;;;;23.70;39.80;;;;;;1545119;76;725;-63
2022/04/01 05:28:21;;;;;;;;;;;23.70;40.00;;;;;;1544906;77;683;-63
2022/04/01 05:30:25;;;;;;;;;;;23.60;39.80;;;;;;1544806;76;1183;-65
2022/04/01 05:32:28;;;;;;;;;;;23.60;40.00;;;;;;1545089;76;1362;-64
2022/04/01 05:34:39;;;;;;;;;;;23.70;40.00;;;;;;1554513;76;1916;-68
2022/04/01 05:36:41;;;;;;;;;;;23.70;39.70;;;;;;1530641;76;780;-68
2022/04/01 05:38:43;;;;;;;;;;;23.70;39.70;;;;;;1513381;77;748;-64
2022/04/01 05:40:45;;;;;;;;;;;23.60;39.90;;;;;;1553481;76;1143;-65
2022/04/01 05:42:47;;;;;;;;;;;23.60;40.10;;;;;;1543244;76;686;-63
2022/04/01 05:44:49;;;;;;;;;;;23.60;40.30;;;;;;1542888;76;724;-67
2022/04/01 05:46:54;;;;;;;;;;;23.70;40.20;;;;;;1558851;76;785;-67
2022/04/01 05:48:55;;;;;;;;;;;23.70;39.90;;;;;;1571357;76;717;-64
2022/04/01 05:50:57;;;;;;;;;;;23.80;39.70;;;;;;1557521;76;1114;-68
2022/04/01 05:53:00;;;;;;;;;;;23.80;39.60;;;;;;1541115;76;722;-66
2022/04/01 05:55:02;;;;;;;;;;;23.80;39.70;;;;;;1511124;77;1925;-67
2022/04/01 05:57:04;;;;;;;;;;;23.80;39.70;;;;;;1542890;76;759;-68
2022/04/01 05:59:06;;;;;;;;;;;23.70;39.50;;;;;;1543959;76;679;-66
2022/04/01 06:01:16;;;;;;;;;;;23.80;39.50;;;;;;1542329;76;1201;-67
2022/04/01 06:03:25;;;;;;;;;;;23.80;39.40;;;;;;1535114;76;897;-67
2022/04/01 06:05:45;;;;;;;;;;;23.90;39.40;;;;;;1542917;76;1514;-67
2022/04/01 06:07:51;;;;;;;;;;;23.90;39.30;;;;;;1540849;76;771;-68
2022/04/01 06:10:07;;;;;;;;;;;23.90;39.20;;;;;;1538992;76;1139;-67
2022/04/01 06:12:14;;;;;;;;;;;23.90;39.20;;;;;;1546114;76;707;-68
2022/04/01 06:14:34;;;;;;;;;;;23.90;39.10;;;;;;1538908;76;1941;-68
2022/04/01 06:16:43;;;;;;;;;;;23.90;39.00;;;;;;1551273;76;736;-69
2022/04/01 06:18:56;;;;;;;;;;;23.90;39.00;;;;;;1543975;76;785;-68
2022/04/01 06:20:58;;;;;;;;;;;23.90;38.90;;;;;;1544205;76;1131;-67
2022/04/01 06:23:01;;;;;;;;;;;24.00;38.90;;;;;;1527972;76;742;-69
2022/04/01 06:25:12;;;;;;;;;;;24.00;38.80;;;;;;1539110;76;739;-67
2022/04/01 06:27:09;;;;;;;;;;;24.00;38.70;;;;;;1540936;76;1711;-68
2022/04/01 06:29:27;;;;;;;;;;;24.00;38.70;;;;;;1542813;76;818;-68
2022/04/01 06:31:30;;;;;;;;;;;24.00;38.70;;;;;;1546224;75;1150;-65
2022/04/01 06:33:43;;;;;;;;;;;24.00;38.70;;;;;;1540393;75;766;-65
2022/04/01 06:35:49;;;;;;;;;;;24.00;38.60;;;;;;1543823;76;1155;-68
2022/04/01 06:38:05;;;;;;;;;;;23.90;38.50;;;;;;1546014;76;1677;-69
2022/04/01 06:40:09;;;;;;;;;;;24.00;38.50;;;;;;1540296;76;1125;-68
2022/04/01 06:42:13;;;;;;;;;;;23.90;38.50;;;;;;1532696;76;1696;-66
2022/04/01 06:44:15;;;;;;;;;;;24.00;38.50;;;;;;1528547;76;813;-68
2022/04/01 06:46:16;;;;;;;;;;;23.90;38.50;;;;;;1530558;76;702;-68
2022/04/01 06:48:18;;;;;;;;;;;23.80;38.70;;;;;;1532772;76;692;-67
2022/04/01 06:50:20;;;;;;;;;;;23.60;38.80;;;;;;1540529;76;1142;-68
2022/04/01 06:52:22;;;;;;;;;;;23.60;39.00;;;;;;1525927;76;738;-69
2022/04/01 06:54:24;;;;;;;;;;;23.50;39.20;;;;;;1539349;76;1936;-70
2022/04/01 06:56:26;;;;;;;;;;;23.50;39.30;;;;;;1537597;76;741;-65
2022/04/01 06:58:30;;;;;;;;;;;23.40;39.30;;;;;;1540016;76;720;-70
2022/04/01 07:00:32;;;;;;;;;;;23.40;39.40;;;;;;1539745;76;1128;-69
2022/04/01 07:02:35;;;;;;;;;;;23.30;39.50;;;;;;1533977;76;781;-69
2022/04/01 07:04:37;;;;;;;;;;;23.30;39.70;;;;;;1542264;76;756;-69
2022/04/01 07:06:39;;;;;;;;;;;23.30;39.60;;;;;;1541195;76;685;-69
2022/04/01 07:08:42;;;;;;;;;;;23.30;39.70;;;;;;1532780;76;797;-70
2022/04/01 07:10:45;;;;;;;;;;;23.30;39.70;;;;;;1534185;76;1140;-70
2022/04/01 07:12:47;;;;;;;;;;;23.30;39.70;;;;;;1536163;76;696;-67
2022/04/01 07:14:49;;;;;;;;;;;23.40;39.70;;;;;;1542839;76;1937;-69
2022/04/01 07:16:51;;;;;;;;;;;23.30;39.70;;;;;;1549448;75;746;-70
2022/04/01 07:18:53;;;;;;;;;;;23.30;39.70;;;;;;1546325;76;915;-69
2022/04/01 07:20:55;;;;;;;;;;;23.30;39.80;;;;;;1553454;75;1114;-70
2022/04/01 07:22:56;;;;;;;;;;;23.20;39.70;;;;;;1542734;76;865;-70
2022/04/01 07:24:58;;;;;;;;;;;23.20;39.70;;;;;;1546156;76;765;-69
2022/04/01 07:27:00;;;;;;;;;;;23.30;39.70;;;;;;1541593;75;794;-70
2022/04/01 07:29:02;;;;;;;;;;;23.20;39.60;;;;;;1536042;76;736;-71
2022/04/01 07:32:29;;;;;;;;;;;23.20;39.70;;;;;;1542491;77;1152;-69
2022/04/01 07:33:08;;;;;;;;;;;23.20;39.80;;;;;;1533991;76;1439;-68
2022/04/01 07:35:14;;;;;;;;;;;23.20;39.90;;;;;;1510757;76;1935;-70
2022/04/01 07:37:16;;;;;;;;;;;23.10;40.00;;;;;;1550972;75;722;-69
2022/04/01 07:39:18;;;;;;;;;;;23.10;40.10;;;;;;1543927;75;782;-69
2022/04/01 07:41:20;;;;;;;;;;;23.20;40.10;;;;;;1533909;77;1079;-69
2022/04/01 07:43:22;;;;;;;;;;;23.10;40.30;;;;;;1536092;76;773;-68
2022/04/01 07:45:24;;;;;;;;;;;23.10;40.20;;;;;;1540854;76;680;-68
2022/04/01 07:47:26;;;;;;;;;;;23.10;40.30;;;;;;1544760;76;723;-70
2022/04/01 07:49:28;;;;;;;;;;;23.10;40.40;;;;;;1537579;76;1134;-70
2022/04/01 07:51:29;;;;;;;;;;;23.10;40.30;;;;;;1528973;76;668;-70
2022/04/01 07:53:31;;;;;;;;;;;23.00;40.30;;;;;;1538550;76;738;-69
2022/04/01 07:55:34;;;;;;;;;;;23.20;40.50;;;;;;1540523;76;1937;-69
2022/04/01 07:57:36;;;;;;;;;;;23.10;40.50;;;;;;1536836;76;718;-69
2022/04/01 07:59:38;;;;;;;;;;;23.10;40.50;;;;;;1557539;75;1163;-69
2022/04/01 08:01:40;;;;;;;;;;;23.10;40.50;;;;;;1533594;76;752;-68
2022/04/01 08:03:44;;;;;;;;;;;23.10;40.50;;;;;;1546990;76;807;-67
2022/04/01 08:05:46;;;;;;;;;;;23.10;40.50;;;;;;1542365;76;2008;-68
2022/04/01 08:07:47;;;;;;;;;;;23.00;40.50;;;;;;1552458;75;783;-68
2022/04/01 08:09:49;;;;;;;;;;;23.10;40.60;;;;;;1545107;76;1151;-69
2022/04/01 08:11:51;;;;;;;;;;;23.10;40.70;;;;;;1541278;76;723;-70
2022/04/01 08:13:54;;;;;;;;;;;23.00;40.50;;;;;;1541086;76;803;-68
2022/04/01 08:15:56;;;;;;;;;;;23.20;40.60;;;;;;1557440;76;1907;-68
2022/04/01 08:17:57;;;;;;;;;;;23.10;40.60;;;;;;1550214;75;786;-68
2022/04/01 08:19:59;;;;;;;;;;;23.10;40.60;;;;;;1535949;76;1164;-70
2022/04/01 08:22:01;;;;;;;;;;;23.10;40.60;;;;;;1535965;76;724;-68
2022/04/01 08:24:03;;;;;;;;;;;23.00;40.50;;;;;;1536909;76;773;-67
2022/04/01 08:26:05;;;;;;;;;;;23.10;40.60;;;;;;1550872;76;724;-67
2022/04/01 08:28:08;;;;;;;;;;;23.10;40.50;;;;;;1559300;75;712;-68
2022/04/01 08:30:10;;;;;;;;;;;23.10;40.50;;;;;;1544177;76;1174;-67
2022/04/01 08:32:12;;;;;;;;;;;23.10;40.50;;;;;;1542116;76;785;-69
2022/04/01 08:34:14;;;;;;;;;;;23.10;40.50;;;;;;1545543;75;846;-67
2022/04/01 08:36:16;;;;;;;;;;;23.00;40.40;;;;;;1549738;75;1942;-68
2022/04/01 08:38:18;;;;;;;;;;;23.00;40.30;;;;;;1540101;75;810;-68
2022/04/01 08:40:20;;;;;;;;;;;23.00;40.30;;;;;;1538995;76;1188;-68
2022/04/01 08:42:22;;;;;;;;;;;23.00;40.40;;;;;;1543071;76;736;-68
2022/04/01 08:44:24;;;;;;;;;;;23.10;40.50;;;;;;1544922;76;779;-68
2022/04/01 08:46:26;;;;;;;;;;;23.00;40.30;;;;;;1535169;75;707;-68
2022/04/01 08:48:28;;;;;;;;;;;23.20;40.50;;;;;;1540985;76;720;-68
2022/04/01 08:50:30;;;;;;;;;;;23.10;40.40;;;;;;1555490;75;1094;-67
2022/04/01 08:52:32;;;;;;;;;;;23.10;40.40;;;;;;1542877;76;732;-69
2022/04/01 08:54:34;;;;;;;;;;;23.10;40.40;;;;;;1543391;76;1929;-70
2022/04/01 08:56:36;;;;;;;;;;;23.10;40.30;;;;;;1530172;76;932;-68
2022/04/01 08:58:38;;;;;;;;;;;23.10;40.30;;;;;;1538466;76;763;-69
2022/04/01 09:00:40;;;;;;;;;;;23.10;40.30;;;;;;1542876;76;1134;-66
2022/04/01 09:02:43;;;;;;;;;;;23.00;40.10;;;;;;1555121;76;773;-68
2022/04/01 09:04:51;;;;;;;;;;;23.00;40.10;;;;;;1536640;76;1635;-69
2022/04/01 09:06:50;;;;;;;;;;;23.10;40.10;;;;;;1544057;76;1605;-68
2022/04/01 09:08:53;;;;;;;;;;;23.10;40.20;;;;;;1547979;76;712;-68
2022/04/01 09:10:58;;;;;;;;;;;23.10;40.20;;;;;;1514439;77;1171;-69
2022/04/01 09:13:00;;;;;;;;;;;23.00;40.00;;;;;;1542807;76;720;-68
2022/04/01 09:15:02;;;;;;;;;;;23.00;40.00;;;;;;1543533;76;1928;-68
2022/04/01 09:17:08;;;;;;;;;;;23.10;40.10;;;;;;1555798;76;725;-68
2022/04/01 09:19:10;;;;;;;;;;;23.10;40.10;;;;;;1551611;76;674;-67
2022/04/01 09:21:12;;;;;;;;;;;23.20;40.00;;;;;;1543880;76;1106;-72
2022/04/01 09:23:16;;;;;;;;;;;23.20;40.00;;;;;;1551087;75;696;-68
2022/04/01 09:25:19;;;;;;;;;;;23.10;40.00;;;;;;1542917;76;1151;-69
2022/04/01 09:27:22;;;;;;;;;;;23.10;40.00;;;;;;1542971;76;719;-68
2022/04/01 09:29:25;;;;;;;;;;;23.10;40.00;;;;;;1548409;76;1918;-68
2022/04/01 09:31:28;;;;;;;;;;;23.10;40.00;;;;;;1553605;75;684;-68
2022/04/01 09:33:49;;;;;;;;;;;23.10;40.10;;;;;;1545479;76;1755;-68
2022/04/01 09:35:52;;;;;;;;;;;23.10;40.00;;;;;;1545152;76;1950;-71
2022/04/01 09:37:55;;;;;;;;;;;23.10;40.00;;;;;;1553971;75;796;-69
2022/04/01 09:39:58;;;;;;;;;;;23.10;40.10;;;;;;1547946;75;1094;-70
2022/04/01 09:42:00;;;;;;;;;;;23.20;40.00;;;;;;1553710;76;707;-68
2022/04/01 09:44:03;;;;;;;;;;;23.10;40.00;;;;;;1546091;76;782;-69
2022/04/01 09:46:05;;;;;;;;;;;23.10;40.00;;;;;;1541427;76;746;-69
2022/04/01 09:48:08;;;;;;;;;;;23.10;40.00;;;;;;1544644;76;742;-72
2022/04/01 09:50:15;;;;;;;;;;;23.10;40.00;;;;;;1531921;76;1208;-71
2022/04/01 09:52:20;;;;;;;;;;;23.00;40.00;;;;;;1548986;75;784;-68
2022/04/01 09:54:20;;;;;;;;;;;23.10;40.10;;;;;;1545462;75;1546;-68
2022/04/01 09:56:40;;;;;;;;;;;23.10;40.10;;;;;;1549983;76;1943;-70
2022/04/01 09:58:42;;;;;;;;;;;23.10;40.20;;;;;;1557365;76;782;-71
2022/04/01 10:00:44;;;;;;;;;;;23.10;40.20;;;;;;1519544;77;1089;-71
2022/04/01 10:02:46;;;;;;;;;;;23.10;40.20;;;;;;1533609;76;729;-72
2022/04/01 10:04:49;;;;;;;;;;;23.10;40.20;;;;;;1543028;76;779;-68
2022/04/01 10:06:51;;;;;;;;;;;23.10;40.20;;;;;;1544341;76;789;-71
2022/04/01 10:08:53;;;;;;;;;;;23.00;40.00;;;;;;1549859;76;800;-70
2022/04/01 10:10:55;;;;;;;;;;;23.10;40.20;;;;;;1549105;76;1152;-70
2022/04/01 10:12:59;;;;;;;;;;;23.00;39.90;;;;;;1546158;75;780;-68
2022/04/01 10:15:00;;;;;;;;;;;23.10;40.30;;;;;;1548688;76;1941;-69
2022/04/01 10:17:02;;;;;;;;;;;23.00;40.00;;;;;;1548029;76;797;-69
2022/04/01 10:19:06;;;;;;;;;;;23.00;40.00;;;;;;1544811;76;719;-69
2022/04/01 10:21:08;;;;;;;;;;;23.10;40.20;;;;;;1544413;76;1116;-69
2022/04/01 10:23:11;;;;;;;;;;;23.10;40.00;;;;;;1546819;76;724;-69
2022/04/01 10:25:14;;;;;;;;;;;23.10;39.90;;;;;;1561383;76;635;-71
2022/04/01 10:27:24;;;;;;;;;;;23.20;39.80;;;;;;1542431;75;784;-70
2022/04/01 10:29:26;;;;;;;;;;;23.10;39.80;;;;;;1551525;76;1071;-71
2022/04/01 10:31:27;;;;;;;;;;;23.10;39.80;;;;;;1507438;77;665;-70
2022/04/01 10:33:35;;;;;;;;;;;23.10;39.80;;;;;;1563818;75;662;-70
2022/04/01 10:35:35;;;;;;;;;;;23.10;39.70;;;;;;1551822;76;1910;-70
2022/04/01 10:37:37;;;;;;;;;;;23.10;39.70;;;;;;1546228;76;1656;-70
2022/04/01 10:39:49;;;;;;;;;;;23.20;39.70;;;;;;1544146;75;1153;-70
2022/04/01 10:42:08;;;;;;;;;;;23.10;39.80;;;;;;1533296;76;688;-70
2022/04/01 10:44:09;;;;;;;;;;;23.10;39.80;;;;;;1541451;76;1836;-70
2022/04/01 10:46:15;;;;;;;;;;;23.30;39.40;;;;;;1542738;76;802;-73
2022/04/01 10:52:59;;;;;;;;;;;23.20;39.10;;;;;;1536291;76;1626;-70
2022/04/01 10:55:06;;;;;;;;;;;23.20;39.10;;;;;;1545964;76;1631;-69
2022/04/01 10:57:08;;;;;;;;;;;23.20;39.30;;;;;;1550108;76;1905;-70
2022/04/01 10:59:14;;;;;;;;;;;23.20;39.40;;;;;;1544661;75;730;-70
2022/04/01 11:01:25;;;;;;;;;;;23.10;39.70;;;;;;1541533;76;1123;-70
2022/04/01 11:03:26;;;;;;;;;;;23.10;39.80;;;;;;1548064;76;792;-70
2022/04/01 11:05:31;;;;;;;;;;;23.20;40.10;;;;;;1549813;76;798;-70
2022/04/01 11:07:36;;;;;;;;;;;23.10;40.20;;;;;;1544060;76;825;-70
2022/04/01 11:09:50;;;;;;;;;;;23.20;40.10;;;;;;1543039;76;1665;-70
2022/04/01 11:12:10;;;;;;;;;;;23.20;40.10;;;;;;1541302;77;712;-71
2022/04/01 11:14:12;;;;;;;;;;;23.10;40.10;;;;;;1536820;75;799;-71
2022/04/01 11:16:25;;;;;;;;;;;23.20;40.80;;;;;;1552364;75;1933;-70
2022/04/01 11:18:22;;;;;;;;;;;23.20;41.40;;;;;;1540507;76;1596;-70
2022/04/01 11:20:32;;;;;;;;;;;23.20;41.80;;;;;;1543636;75;1157;-70
2022/04/01 11:22:35;;;;;;;;;;;23.20;41.80;;;;;;1543468;75;1580;-70
2022/04/01 11:24:41;;;;;;;;;;;23.20;43.00;;;;;;1538047;76;1867;-70
2022/04/01 11:26:42;;;;;;;;;;;23.20;42.10;;;;;;1533432;75;1643;-68
2022/04/01 11:28:45;;;;;;;;;;;23.20;42.30;;;;;;1542038;77;1069;-70
2022/04/01 11:30:51;;;;;;;;;;;23.30;42.80;;;;;;1540459;76;1152;-69
2022/04/01 11:32:55;;;;;;;;;;;23.30;42.60;;;;;;1546625;75;756;-71
2022/04/01 11:34:57;;;;;;;;;;;23.20;42.50;;;;;;1542633;76;1815;-68
2022/04/01 11:37:01;;;;;;;;;;;23.20;42.30;;;;;;1543737;77;1911;-69
2022/04/01 11:39:04;;;;;;;;;;;23.20;42.30;;;;;;1541750;76;2195;-69
2022/04/01 11:41:09;;;;;;;;;;;23.30;42.30;;;;;;1538579;76;1135;-69
2022/04/01 11:43:11;;;;;;;;;;;23.30;42.20;;;;;;1541245;76;1605;-69
2022/04/01 11:45:13;;;;;;;;;;;23.20;42.00;;;;;;1539671;76;683;-69
2022/04/01 11:47:14;;;;;;;;;;;23.30;42.00;;;;;;1549065;76;707;-70
2022/04/01 11:49:17;;;;;;;;;;;23.30;41.90;;;;;;1511664;76;1252;-71
2022/04/01 11:51:19;;;;;;;;;;;23.30;41.80;;;;;;1540358;77;1104;-70
2022/04/01 11:53:31;;;;;;;;;;;23.30;41.70;;;;;;1543292;76;742;-70
2022/04/01 11:55:32;;;;;;;;;;;23.30;41.60;;;;;;1550398;76;1904;-68
2022/04/01 11:57:35;;;;;;;;;;;23.30;41.50;;;;;;1543966;76;736;-70
2022/04/01 11:59:36;;;;;;;;;;;23.30;41.50;;;;;;1538712;76;1134;-70
2022/04/01 12:01:54;;;;;;;;;;;23.20;41.20;;;;;;1525757;76;791;-70
2022/04/01 12:03:42;;;;;;;;;;;23.30;41.10;;;;;;1526508;76;1719;-67
2022/04/01 12:05:44;;;;;;;;;;;23.40;40.60;;;;;;1529665;75;755;-69
2022/04/01 12:10:22;;;;;;;;;;;23.70;40.00;;;;;;1540862;76;1658;-70
2022/04/01 12:12:24;;;;;;;;;;;23.80;39.60;;;;;;1536957;76;750;-69
2022/04/01 12:14:27;;;;;;;;;;;23.90;39.40;;;;;;1524838;76;733;-70
2022/04/01 12:16:29;;;;;;;;;;;24.00;39.20;;;;;;1525776;76;1917;-70
2022/04/01 12:18:31;;;;;;;;;;;24.00;39.10;;;;;;1533570;76;725;-69
2022/04/01 12:20:34;;;;;;;;;;;24.00;38.90;;;;;;1530179;76;1108;-70
2022/04/01 12:22:38;;;;;;;;;;;24.10;38.90;;;;;;1527245;76;1809;-70
2022/04/01 12:24:40;;;;;;;;;;;24.20;38.90;;;;;;1527651;76;1989;-69
2022/04/01 12:26:43;;;;;;;;;;;24.10;38.80;;;;;;1532059;76;775;-69
2022/04/01 12:28:45;;;;;;;;;;;24.10;38.70;;;;;;1536481;76;713;-69
2022/04/01 12:30:48;;;;;;;;;;;24.00;38.60;;;;;;1540429;75;1202;-70